Time;durP1;ratioP1;P1;durP2;ratioP2;P2;SDS_P1;SDS_P2;PMS_P1;PMS_P2;Temp;Humidity;BMP_temperature;BMP_pressure;BME280_temperature;BME280_humidity;BME280_pressure;Samples;Min_cycle;Max_cycle;Signal;HPM_P1;HPM_P2
2023/08/01 00:01:44;;;;;;;5.38;2.83;;;19.40;99.90;;;;;;4246576;28;20103;-51
2023/08/01 00:03:46;;;;;;;6.80;3.20;;;19.40;99.90;;;;;;4246877;28;20400;-51
2023/08/01 00:05:49;;;;;;;3.58;2.55;;;19.40;99.90;;;;;;4264193;27;20046;-52
2023/08/01 00:07:53;;;;;;;3.65;2.50;;;19.40;99.90;;;;;;4265465;27;20118;-52
2023/08/01 00:09:55;;;;;;;4.50;2.78;;;19.40;99.90;;;;;;4264857;27;20051;-52
2023/08/01 00:11:57;;;;;;;5.53;2.95;;;19.40;99.90;;;;;;4265031;27;20050;-52
2023/08/01 00:13:59;;;;;;;5.10;2.70;;;19.30;99.90;;;;;;4265209;27;20399;-52
2023/08/01 00:16:01;;;;;;;3.60;2.67;;;19.30;99.90;;;;;;4264759;27;20066;-52
2023/08/01 00:18:09;;;;;;;4.28;2.70;;;19.30;99.90;;;;;;4265132;27;20042;-57
2023/08/01 00:20:11;;;;;;;5.13;2.78;;;19.30;99.90;;;;;;4264469;27;20091;-51
2023/08/01 00:22:13;;;;;;;3.90;2.42;;;19.30;99.90;;;;;;4265282;27;20571;-52
2023/08/01 00:24:17;;;;;;;4.80;2.70;;;19.30;99.90;;;;;;4265051;27;20790;-55
2023/08/01 00:26:19;;;;;;;3.17;2.38;;;19.30;99.90;;;;;;4264233;27;20049;-53
2023/08/01 00:28:22;;;;;;;4.38;2.40;;;19.30;99.90;;;;;;4246634;28;20121;-52
2023/08/01 00:30:24;;;;;;;3.92;2.35;;;19.30;99.90;;;;;;4264849;27;20053;-52
2023/08/01 00:32:26;;;;;;;3.10;2.20;;;19.30;99.90;;;;;;4265059;27;20407;-52
2023/08/01 00:34:28;;;;;;;5.85;2.58;;;19.30;99.90;;;;;;4264568;27;20095;-52
2023/08/01 00:36:30;;;;;;;4.07;2.60;;;19.30;99.90;;;;;;4264090;27;20376;-51
2023/08/01 00:38:32;;;;;;;4.53;2.53;;;19.30;99.90;;;;;;4265230;27;20449;-54
2023/08/01 00:40:35;;;;;;;5.10;2.13;;;19.30;99.90;;;;;;4264916;27;20043;-52
2023/08/01 00:42:38;;;;;;;7.95;2.80;;;19.30;99.90;;;;;;4264541;27;20051;-53
2023/08/01 00:44:40;;;;;;;2.95;2.20;;;19.30;99.90;;;;;;4264808;27;20042;-52
2023/08/01 00:46:42;;;;;;;3.78;2.70;;;19.30;99.90;;;;;;4265912;27;20129;-52
2023/08/01 00:48:45;;;;;;;4.80;2.38;;;19.30;99.90;;;;;;4267688;27;20095;-52
2023/08/01 00:50:48;;;;;;;4.85;2.60;;;19.30;99.90;;;;;;4267878;27;20107;-52
2023/08/01 00:52:52;;;;;;;5.97;2.72;;;19.30;99.90;;;;;;4267712;27;20053;-52
2023/08/01 00:54:55;;;;;;;4.38;2.63;;;19.30;99.90;;;;;;4268036;27;20479;-52
2023/08/01 00:56:58;;;;;;;3.38;2.33;;;19.30;99.90;;;;;;4248731;27;20492;-52
2023/08/01 00:59:00;;;;;;;3.38;2.30;;;19.30;99.90;;;;;;4267545;27;20074;-52
2023/08/01 01:01:03;;;;;;;5.28;2.60;;;19.30;99.90;;;;;;4267789;27;20449;-52
2023/08/01 01:03:06;;;;;;;3.47;2.30;;;19.30;99.90;;;;;;4248995;27;20043;-51
2023/08/01 01:05:08;;;;;;;4.15;2.35;;;19.30;99.90;;;;;;4267821;27;20042;-51
2023/08/01 01:07:11;;;;;;;3.28;2.45;;;19.30;99.90;;;;;;4267102;27;20095;-52
2023/08/01 01:09:18;;;;;;;3.88;2.38;;;19.30;99.90;;;;;;4267593;27;20046;-52
2023/08/01 01:11:20;;;;;;;7.20;2.50;;;19.30;99.90;;;;;;4268329;27;20111;-56
2023/08/01 01:13:23;;;;;;;4.70;2.53;;;19.30;99.90;;;;;;4267852;27;20046;-52
2023/08/01 01:15:25;;;;;;;3.28;2.40;;;19.20;99.90;;;;;;4267599;27;20076;-52
2023/08/01 01:17:27;;;;;;;6.95;2.80;;;19.20;99.90;;;;;;4266637;27;20145;-54
2023/08/01 01:19:29;;;;;;;6.25;1.90;;;19.10;99.90;;;;;;4232028;28;20044;-52
2023/08/01 01:21:34;;;;;;;4.70;1.30;;;19.00;99.90;;;;;;4267445;27;20062;-52
2023/08/01 01:23:37;;;;;;;2.97;0.98;;;18.90;99.90;;;;;;4267649;27;20415;-52
2023/08/01 01:25:40;;;;;;;4.00;0.70;;;18.90;99.90;;;;;;4267785;27;20411;-52
2023/08/01 01:27:43;;;;;;;4.25;0.93;;;18.80;99.90;;;;;;4266577;27;20047;-52
2023/08/01 01:29:46;;;;;;;3.30;1.00;;;18.80;99.90;;;;;;4248713;27;20515;-55
2023/08/01 01:31:49;;;;;;;2.22;0.95;;;18.70;99.90;;;;;;4267191;27;20050;-58
2023/08/01 01:33:51;;;;;;;1.30;0.80;;;18.80;99.90;;;;;;4267374;27;20473;-54
2023/08/01 01:35:54;;;;;;;1.58;0.75;;;18.70;99.90;;;;;;4267835;27;20070;-52
2023/08/01 01:37:58;;;;;;;1.33;0.50;;;18.70;99.90;;;;;;4267677;27;20388;-56
2023/08/01 01:40:00;;;;;;;3.00;0.85;;;18.70;99.90;;;;;;4267763;27;20166;-52
2023/08/01 01:42:03;;;;;;;0.95;0.80;;;18.70;99.90;;;;;;4268408;27;20096;-59
2023/08/01 01:44:05;;;;;;;2.58;0.68;;;18.70;99.90;;;;;;4267884;27;20045;-52
2023/08/01 01:46:07;;;;;;;1.00;0.63;;;18.70;99.90;;;;;;4266197;27;20038;-53
2023/08/01 01:48:09;;;;;;;1.30;0.70;;;18.70;99.90;;;;;;4266917;27;20061;-52
2023/08/01 01:50:11;;;;;;;0.47;0.47;;;18.70;99.90;;;;;;4266785;27;20054;-52
2023/08/01 01:52:13;;;;;;;1.40;0.60;;;18.70;99.90;;;;;;4267020;27;20066;-52
2023/08/01 01:54:17;;;;;;;1.42;0.60;;;18.60;99.90;;;;;;4267115;27;20066;-52
2023/08/01 01:56:19;;;;;;;1.27;0.95;;;18.60;99.90;;;;;;4265908;27;20046;-51
2023/08/01 01:58:21;;;;;;;1.88;0.60;;;18.60;99.90;;;;;;4266466;27;20404;-52
2023/08/01 02:00:23;;;;;;;0.80;0.55;;;18.60;99.90;;;;;;4266789;27;20047;-52
2023/08/01 02:02:25;;;;;;;1.17;0.50;;;18.50;99.90;;;;;;4266400;27;20483;-51
2023/08/01 02:04:27;;;;;;;1.45;0.60;;;18.60;99.90;;;;;;4267221;27;20042;-52
2023/08/01 02:06:29;;;;;;;0.57;0.57;;;18.60;99.90;;;;;;4266017;27;20043;-52
2023/08/01 02:08:31;;;;;;;1.85;0.40;;;18.60;99.90;;;;;;4266776;27;20464;-52
2023/08/01 02:10:35;;;;;;;0.60;0.50;;;18.60;99.90;;;;;;4266709;27;20046;-52
2023/08/01 02:12:37;;;;;;;2.05;0.30;;;18.60;99.90;;;;;;4266896;27;20633;-53
2023/08/01 02:14:39;;;;;;;2.55;0.52;;;18.50;99.90;;;;;;4267940;27;20047;-52
2023/08/01 02:16:41;;;;;;;3.05;0.55;;;18.60;99.90;;;;;;4265746;27;20476;-52
2023/08/01 02:18:44;;;;;;;2.60;0.47;;;18.60;99.90;;;;;;4266542;27;20049;-52
2023/08/01 02:20:46;;;;;;;2.60;0.60;;;18.40;99.90;;;;;;4266526;27;20070;-51
2023/08/01 02:22:48;;;;;;;1.65;0.63;;;18.30;99.90;;;;;;4266612;27;20051;-51
2023/08/01 02:24:50;;;;;;;1.73;0.70;;;18.30;99.90;;;;;;4248100;27;20469;-52
2023/08/01 02:26:53;;;;;;;2.97;0.80;;;18.20;99.90;;;;;;4265738;27;20066;-52
2023/08/01 02:28:55;;;;;;;3.45;0.70;;;18.20;99.90;;;;;;4266605;27;20121;-52
2023/08/01 02:30:57;;;;;;;1.33;0.75;;;18.30;99.90;;;;;;4265969;27;20126;-52
2023/08/01 02:32:59;;;;;;;2.63;0.77;;;18.30;99.90;;;;;;4266232;27;20043;-52
2023/08/01 02:35:02;;;;;;;5.60;1.10;;;18.20;99.90;;;;;;4266161;27;20042;-52
2023/08/01 02:37:05;;;;;;;3.70;0.93;;;18.20;99.90;;;;;;4247366;27;20070;-51
2023/08/01 02:39:07;;;;;;;2.05;0.88;;;18.20;99.90;;;;;;4266000;27;20133;-52
2023/08/01 02:41:09;;;;;;;2.90;0.90;;;18.10;99.90;;;;;;4266349;27;20043;-55
2023/08/01 02:43:13;;;;;;;1.63;1.23;;;18.00;99.90;;;;;;4266058;27;20487;-54
2023/08/01 02:45:15;;;;;;;1.35;0.82;;;18.10;99.90;;;;;;4267119;27;20070;-55
2023/08/01 02:47:17;;;;;;;2.47;0.80;;;18.00;99.90;;;;;;4265205;27;20043;-55
2023/08/01 02:49:19;;;;;;;1.92;0.93;;;18.00;99.90;;;;;;4266013;27;20046;-54
2023/08/01 02:51:21;;;;;;;2.25;0.60;;;17.90;99.90;;;;;;4266120;27;20413;-54
2023/08/01 02:53:23;;;;;;;2.38;0.90;;;17.80;99.90;;;;;;4265754;27;20046;-55
2023/08/01 02:55:25;;;;;;;1.10;0.70;;;17.80;99.90;;;;;;4265776;27;20050;-54
2023/08/01 02:57:28;;;;;;;2.25;1.10;;;17.80;99.90;;;;;;4265132;27;20053;-54
2023/08/01 02:59:32;;;;;;;1.63;1.00;;;17.80;99.90;;;;;;4265575;27;20039;-54
2023/08/01 03:01:35;;;;;;;2.97;1.05;;;17.70;99.90;;;;;;4265590;27;20056;-54
2023/08/01 03:03:37;;;;;;;2.40;0.90;;;17.70;99.90;;;;;;4266114;27;20072;-54
2023/08/01 03:05:39;;;;;;;2.10;0.90;;;17.60;99.90;;;;;;4265867;27;20373;-54
2023/08/01 03:07:41;;;;;;;1.85;0.90;;;17.70;99.90;;;;;;4265009;27;20047;-55
2023/08/01 03:09:43;;;;;;;1.83;0.80;;;17.60;99.90;;;;;;4265041;27;20046;-54
2023/08/01 03:11:45;;;;;;;1.52;0.80;;;17.60;99.90;;;;;;4265532;27;20062;-54
2023/08/01 03:13:48;;;;;;;2.05;1.00;;;17.60;99.90;;;;;;4265367;27;20042;-55
2023/08/01 03:15:51;;;;;;;1.60;0.82;;;17.60;99.90;;;;;;4265800;27;20122;-55
2023/08/01 03:17:53;;;;;;;1.23;0.82;;;17.60;99.90;;;;;;4265929;27;20388;-54
2023/08/01 03:19:55;;;;;;;2.03;1.08;;;17.60;99.90;;;;;;4265536;27;20043;-55
2023/08/01 03:21:57;;;;;;;2.10;0.90;;;17.60;99.90;;;;;;4265426;27;20107;-55
2023/08/01 03:24:00;;;;;;;3.33;1.40;;;17.60;99.90;;;;;;4265118;27;20049;-54
2023/08/01 03:26:02;;;;;;;1.17;0.80;;;17.60;99.90;;;;;;4265252;27;20050;-54
2023/08/01 03:28:05;;;;;;;1.35;0.80;;;17.60;99.90;;;;;;4264209;27;20035;-54
2023/08/01 03:30:08;;;;;;;4.05;0.90;;;17.60;99.90;;;;;;4265140;27;20046;-54
2023/08/01 03:32:12;;;;;;;2.77;1.30;;;17.70;99.90;;;;;;4265514;27;20053;-54
2023/08/01 03:34:14;;;;;;;1.95;1.00;;;17.60;99.90;;;;;;4265363;27;20053;-55
2023/08/01 03:36:16;;;;;;;4.07;1.20;;;17.60;99.90;;;;;;4264991;27;20427;-55
2023/08/01 03:38:18;;;;;;;2.33;1.13;;;17.60;99.90;;;;;;4265147;27;20043;-54
2023/08/01 03:40:21;;;;;;;2.45;1.00;;;17.50;99.90;;;;;;4265041;27;20058;-55
2023/08/01 03:42:23;;;;;;;2.40;1.25;;;17.50;99.90;;;;;;4264790;27;20066;-55
2023/08/01 03:44:25;;;;;;;2.72;1.52;;;17.60;99.90;;;;;;4265041;27;20523;-54
2023/08/01 03:46:27;;;;;;;2.08;1.33;;;17.60;99.90;;;;;;4264638;27;20049;-54
2023/08/01 03:48:30;;;;;;;3.17;1.25;;;17.50;99.90;;;;;;4266020;27;20051;-55
2023/08/01 03:50:32;;;;;;;3.35;1.25;;;17.50;99.90;;;;;;4265307;27;20477;-55
2023/08/01 03:52:34;;;;;;;5.28;1.50;;;17.40;99.90;;;;;;4265015;27;20068;-54
2023/08/01 03:54:36;;;;;;;1.90;1.30;;;17.40;99.90;;;;;;4265476;27;20050;-54
2023/08/01 03:56:42;;;;;;;2.45;1.38;;;17.40;99.90;;;;;;4264061;27;20125;-54
2023/08/01 03:58:44;;;;;;;3.65;1.50;;;17.40;99.90;;;;;;4264711;27;20070;-55
2023/08/01 04:00:46;;;;;;;4.03;1.38;;;17.30;99.90;;;;;;4264798;27;20130;-55
2023/08/01 04:02:48;;;;;;;3.50;1.60;;;17.30;99.90;;;;;;4265138;27;20047;-54
2023/08/01 04:04:53;;;;;;;5.07;1.75;;;17.30;99.90;;;;;;4265096;27;20046;-55
2023/08/01 04:06:55;;;;;;;5.72;1.75;;;17.20;99.90;;;;;;4264254;27;20043;-55
2023/08/01 04:08:57;;;;;;;3.22;1.92;;;17.20;99.90;;;;;;4264966;27;20635;-54
2023/08/01 04:10:59;;;;;;;2.65;1.88;;;17.20;99.90;;;;;;4246280;28;20055;-55
2023/08/01 04:13:01;;;;;;;4.88;1.88;;;17.20;99.90;;;;;;4265142;27;20047;-55
2023/08/01 04:15:04;;;;;;;5.55;2.25;;;17.20;99.90;;;;;;4265132;27;20464;-54
2023/08/01 04:17:06;;;;;;;4.57;1.77;;;17.10;99.90;;;;;;4264546;27;20135;-54
2023/08/01 04:19:09;;;;;;;3.67;1.85;;;17.10;99.90;;;;;;4264919;27;20498;-54
2023/08/01 04:21:14;;;;;;;12.70;2.30;;;17.10;99.90;;;;;;4268157;27;20055;-55
2023/08/01 04:23:16;;;;;;;5.72;2.17;;;17.10;99.90;;;;;;4268584;27;20049;-55
2023/08/01 04:25:18;;;;;;;7.53;2.42;;;17.10;99.90;;;;;;4268256;27;20130;-55
2023/08/01 04:27:20;;;;;;;6.85;2.40;;;17.10;99.90;;;;;;4267869;27;20050;-55
2023/08/01 04:29:22;;;;;;;6.05;2.13;;;17.00;99.90;;;;;;4268763;27;20053;-54
2023/08/01 04:31:24;;;;;;;4.35;2.10;;;17.00;99.90;;;;;;4268207;27;20047;-54
2023/08/01 04:33:27;;;;;;;6.65;2.25;;;17.00;99.90;;;;;;4268166;27;20552;-55
2023/08/01 04:35:29;;;;;;;5.43;2.50;;;17.00;99.90;;;;;;4268343;27;20145;-54
2023/08/01 04:37:32;;;;;;;4.50;1.92;;;17.00;99.90;;;;;;4267594;27;20049;-54
2023/08/01 04:39:35;;;;;;;6.05;1.95;;;17.00;99.90;;;;;;4268386;27;20415;-55
2023/08/01 04:41:37;;;;;;;5.85;1.95;;;17.00;99.90;;;;;;4249132;27;20055;-55
2023/08/01 04:43:39;;;;;;;7.88;2.20;;;17.10;99.90;;;;;;4268110;27;20107;-54
2023/08/01 04:45:41;;;;;;;3.95;1.95;;;17.10;99.90;;;;;;4267840;27;20045;-55
2023/08/01 04:47:43;;;;;;;5.63;2.22;;;17.10;99.90;;;;;;4266976;27;20050;-54
2023/08/01 04:49:45;;;;;;;5.20;2.70;;;17.10;99.90;;;;;;4249630;27;20058;-54
2023/08/01 04:51:49;;;;;;;4.35;2.00;;;17.10;99.90;;;;;;4249522;27;20126;-54
2023/08/01 04:53:53;;;;;;;6.43;2.55;;;17.10;99.90;;;;;;4268304;27;20090;-54
2023/08/01 04:55:55;;;;;;;3.55;2.35;;;17.10;99.90;;;;;;4267674;27;20476;-55
2023/08/01 04:57:57;;;;;;;4.32;1.95;;;17.10;99.90;;;;;;4267325;27;20043;-54
2023/08/01 04:59:59;;;;;;;3.10;2.00;;;17.10;99.90;;;;;;4267694;27;20050;-54
2023/08/01 05:02:01;;;;;;;4.80;2.63;;;17.00;99.90;;;;;;4267732;27;20069;-55
2023/08/01 05:04:07;;;;;;;4.80;2.50;;;17.00;99.90;;;;;;4267533;27;20133;-55
2023/08/01 05:06:09;;;;;;;5.57;2.55;;;17.00;99.90;;;;;;4267711;27;20050;-54
2023/08/01 05:08:11;;;;;;;5.32;2.13;;;17.00;99.90;;;;;;4267046;27;20508;-54
2023/08/01 05:10:14;;;;;;;6.25;2.67;;;17.00;99.90;;;;;;4267496;27;20042;-54
2023/08/01 05:12:18;;;;;;;7.10;2.22;;;17.00;99.90;;;;;;4267792;27;20505;-54
2023/08/01 05:14:20;;;;;;;5.68;2.38;;;17.10;99.90;;;;;;4267703;27;20066;-54
2023/08/01 05:16:22;;;;;;;6.97;2.47;;;17.10;99.90;;;;;;4267602;27;20138;-54
2023/08/01 05:18:25;;;;;;;7.05;2.50;;;17.10;99.90;;;;;;4248244;27;20039;-54
2023/08/01 05:20:30;;;;;;;6.28;2.65;;;17.10;99.90;;;;;;4267615;27;20103;-54
2023/08/01 05:22:33;;;;;;;5.85;2.40;;;17.10;99.90;;;;;;4267423;27;20426;-55
2023/08/01 05:24:35;;;;;;;4.95;2.28;;;17.20;99.90;;;;;;4266796;27;20038;-54
2023/08/01 05:26:38;;;;;;;4.30;2.17;;;17.20;99.90;;;;;;4267302;27;20042;-54
2023/08/01 05:28:40;;;;;;;5.85;2.80;;;17.10;99.90;;;;;;4248765;27;20050;-54
2023/08/01 05:30:42;;;;;;;13.45;2.67;;;17.20;99.90;;;;;;4267409;27;20043;-53
2023/08/01 05:32:46;;;;;;;7.72;2.45;;;17.20;99.90;;;;;;4266142;27;20087;-55
2023/08/01 05:34:48;;;;;;;4.53;2.30;;;17.20;99.90;;;;;;4267225;27;20046;-55
2023/08/01 05:36:51;;;;;;;5.32;2.33;;;17.30;99.90;;;;;;4266511;27;20047;-54
2023/08/01 05:38:53;;;;;;;7.30;2.38;;;17.30;99.90;;;;;;4266562;27;20059;-53
2023/08/01 05:40:55;;;;;;;4.72;2.70;;;17.30;99.90;;;;;;4266939;27;20042;-54
2023/08/01 05:42:59;;;;;;;5.68;2.53;;;17.30;99.90;;;;;;4267183;27;20050;-55
2023/08/01 05:45:01;;;;;;;12.50;3.25;;;17.30;99.90;;;;;;4266946;27;20046;-55
2023/08/01 05:47:03;;;;;;;4.07;2.25;;;17.30;99.90;;;;;;4265919;27;20074;-54
2023/08/01 05:49:05;;;;;;;7.72;3.10;;;17.20;99.90;;;;;;4266884;27;20039;-54
2023/08/01 05:51:07;;;;;;;6.85;2.67;;;17.30;99.90;;;;;;4267104;27;20103;-54
2023/08/01 05:53:09;;;;;;;8.35;2.50;;;17.30;99.90;;;;;;4266532;27;20073;-55
2023/08/01 05:55:11;;;;;;;5.15;2.90;;;17.40;99.90;;;;;;4266932;27;20046;-54
2023/08/01 05:57:13;;;;;;;7.32;2.83;;;17.40;99.90;;;;;;4266081;27;20139;-53
2023/08/01 05:59:17;;;;;;;6.72;2.65;;;17.50;99.90;;;;;;4266816;27;20125;-54
2023/08/01 06:01:19;;;;;;;8.75;2.72;;;17.40;99.90;;;;;;4266685;27;20091;-54
2023/08/01 06:03:21;;;;;;;10.77;3.05;;;17.40;99.90;;;;;;4266941;27;20103;-54
2023/08/01 06:05:24;;;;;;;11.48;3.85;;;17.40;99.90;;;;;;4266857;27;20043;-50
2023/08/01 06:07:26;;;;;;;8.27;2.67;;;17.40;99.90;;;;;;4265610;27;20452;-51
2023/08/01 06:09:28;;;;;;;10.15;3.03;;;17.50;99.90;;;;;;4266469;27;20050;-51
2023/08/01 06:11:30;;;;;;;9.20;2.63;;;17.60;99.90;;;;;;4266768;27;20077;-51
2023/08/01 06:13:32;;;;;;;11.98;2.85;;;17.50;99.90;;;;;;4266413;27;20137;-51
2023/08/01 06:15:36;;;;;;;11.43;2.78;;;17.40;99.90;;;;;;4266414;27;20468;-51
2023/08/01 06:17:38;;;;;;;9.82;3.28;;;17.40;99.90;;;;;;4265754;27;20046;-51
2023/08/01 06:19:40;;;;;;;11.65;2.97;;;17.30;99.90;;;;;;4266505;27;20050;-52
2023/08/01 06:21:42;;;;;;;8.13;2.97;;;17.30;99.90;;;;;;4266203;27;20062;-53
2023/08/01 06:23:44;;;;;;;12.45;3.30;;;17.20;99.90;;;;;;4266628;27;20062;-52
2023/08/01 06:25:46;;;;;;;13.48;3.72;;;17.20;99.90;;;;;;4266377;27;20073;-52
2023/08/01 06:27:48;;;;;;;9.13;3.30;;;17.20;99.90;;;;;;4265565;27;20058;-52
2023/08/01 06:29:54;;;;;;;9.50;3.03;;;17.30;99.90;;;;;;4248419;27;20405;-52
2023/08/01 06:31:57;;;;;;;10.02;3.03;;;17.20;99.90;;;;;;4266521;27;20050;-51
2023/08/01 06:34:00;;;;;;;11.13;3.15;;;17.20;99.90;;;;;;4266204;27;20188;-51
2023/08/01 06:36:02;;;;;;;10.30;3.38;;;17.20;99.90;;;;;;4265953;27;20046;-51
2023/08/01 06:38:04;;;;;;;9.23;3.20;;;17.20;99.90;;;;;;4265275;27;20117;-51
2023/08/01 06:40:08;;;;;;;12.52;3.13;;;17.20;99.90;;;;;;4266249;27;20067;-52
2023/08/01 06:42:10;;;;;;;7.03;3.22;;;17.30;99.90;;;;;;4266038;27;20068;-52
2023/08/01 06:44:13;;;;;;;7.32;2.97;;;17.30;99.90;;;;;;4266062;27;20117;-52
2023/08/01 06:46:15;;;;;;;8.02;3.17;;;17.30;99.90;;;;;;4266125;27;20088;-51
2023/08/01 06:48:19;;;;;;;11.80;3.28;;;17.40;99.90;;;;;;4265157;27;20178;-52
2023/08/01 06:50:21;;;;;;;8.35;3.30;;;17.50;99.90;;;;;;4266229;27;20057;-54
2023/08/01 06:52:23;;;;;;;12.30;3.25;;;17.50;99.90;;;;;;4265413;27;20049;-54
2023/08/01 06:54:25;;;;;;;12.00;3.05;;;17.60;99.90;;;;;;4266147;27;20066;-54
2023/08/01 06:56:27;;;;;;;13.32;3.85;;;17.60;99.90;;;;;;4265956;27;20054;-54
2023/08/01 06:58:29;;;;;;;9.75;3.42;;;17.80;99.90;;;;;;4265138;27;20053;-54
2023/08/01 07:00:31;;;;;;;12.85;3.42;;;17.90;99.90;;;;;;4265948;27;20448;-52
2023/08/01 07:02:33;;;;;;;12.10;3.40;;;17.90;99.90;;;;;;4265896;27;20519;-52
2023/08/01 07:04:37;;;;;;;18.48;3.65;;;17.90;99.90;;;;;;4265870;27;20457;-51
2023/08/01 07:06:40;;;;;;;14.20;3.90;;;17.90;99.90;;;;;;4265322;27;20049;-52
2023/08/01 07:08:43;;;;;;;12.88;3.63;;;17.90;99.90;;;;;;4265396;27;20441;-52
2023/08/01 07:10:46;;;;;;;12.93;3.67;;;17.90;99.90;;;;;;4265718;27;20053;-52
2023/08/01 07:12:48;;;;;;;10.25;3.28;;;18.00;99.90;;;;;;4265508;27;20046;-52
2023/08/01 07:14:50;;;;;;;14.68;3.72;;;17.90;99.90;;;;;;4265414;27;20114;-52
2023/08/01 07:16:52;;;;;;;14.05;4.03;;;18.00;99.90;;;;;;4265794;27;20076;-52
2023/08/01 07:18:55;;;;;;;14.63;4.15;;;18.10;99.90;;;;;;4266566;27;20048;-54
2023/08/01 07:21:02;;;;;;;12.07;3.83;;;18.10;99.90;;;;;;4266646;27;20042;-52
2023/08/01 07:23:04;;;;;;;10.13;3.38;;;18.10;99.90;;;;;;4265872;27;20484;-52
2023/08/01 07:25:07;;;;;;;10.63;3.35;;;18.20;99.90;;;;;;4265418;27;20125;-53
2023/08/01 07:27:12;;;;;;;14.40;3.80;;;18.20;99.90;;;;;;4264752;27;20363;-52
2023/08/01 07:29:15;;;;;;;13.80;4.03;;;18.40;99.90;;;;;;4265410;27;20123;-52
2023/08/01 07:31:17;;;;;;;15.27;4.25;;;18.40;99.90;;;;;;4265094;27;20077;-53
2023/08/01 07:33:19;;;;;;;18.50;3.88;;;18.50;99.90;;;;;;4265309;27;20123;-52
2023/08/01 07:35:21;;;;;;;13.23;3.30;;;18.50;99.90;;;;;;4264994;27;20479;-53
2023/08/01 07:37:28;;;;;;;10.40;3.63;;;18.60;99.90;;;;;;4264625;27;20099;-52
2023/08/01 07:39:30;;;;;;;9.63;3.35;;;18.40;99.90;;;;;;4265060;27;20452;-53
2023/08/01 07:41:34;;;;;;;8.77;3.42;;;18.50;99.90;;;;;;4246838;27;20504;-52
2023/08/01 07:43:36;;;;;;;9.80;3.08;;;18.50;99.90;;;;;;4265371;27;20126;-53
2023/08/01 07:45:38;;;;;;;11.68;3.33;;;18.60;99.90;;;;;;4265431;27;20046;-52
2023/08/01 07:47:41;;;;;;;13.95;3.70;;;18.60;99.90;;;;;;4264652;27;20099;-54
2023/08/01 07:49:44;;;;;;;13.35;3.90;;;18.60;99.90;;;;;;4264881;27;20038;-52
2023/08/01 07:51:46;;;;;;;19.33;3.95;;;18.70;99.90;;;;;;4265110;27;20042;-52
2023/08/01 07:53:51;;;;;;;10.90;3.03;;;18.60;99.90;;;;;;4265027;27;20403;-52
2023/08/01 07:55:53;;;;;;;17.35;4.05;;;18.60;99.90;;;;;;4264786;27;20047;-52
2023/08/01 07:57:56;;;;;;;11.85;3.30;;;18.60;99.90;;;;;;4264262;27;20042;-52
2023/08/01 07:59:58;;;;;;;11.55;3.38;;;18.70;99.90;;;;;;4265057;27;20533;-53
2023/08/01 08:02:00;;;;;;;12.95;3.58;;;18.80;99.90;;;;;;4264740;27;20381;-51
2023/08/01 08:04:02;;;;;;;14.90;3.78;;;18.70;99.90;;;;;;4264575;27;20125;-51
2023/08/01 08:06:05;;;;;;;9.13;3.33;;;18.80;99.90;;;;;;4265065;27;20156;-52
2023/08/01 08:08:07;;;;;;;14.02;3.85;;;18.80;99.90;;;;;;4264489;27;20046;-52
2023/08/01 08:10:11;;;;;;;9.23;3.53;;;18.80;99.90;;;;;;4264990;27;20092;-53
2023/08/01 08:12:13;;;;;;;11.55;3.22;;;19.00;99.90;;;;;;4264873;27;20046;-52
2023/08/01 08:14:15;;;;;;;10.52;3.47;;;19.10;99.90;;;;;;4265110;27;20069;-52
2023/08/01 08:16:17;;;;;;;11.35;3.22;;;19.20;99.90;;;;;;4264660;27;20534;-51
2023/08/01 08:18:19;;;;;;;13.15;3.45;;;19.30;99.90;;;;;;4263616;27;20111;-51
2023/08/01 08:20:22;;;;;;;12.43;3.53;;;19.30;99.90;;;;;;4265142;27;20047;-52
2023/08/01 08:22:24;;;;;;;18.42;4.00;;;19.40;99.90;;;;;;4264621;27;20062;-51
2023/08/01 08:24:26;;;;;;;13.70;3.35;;;19.50;99.90;;;;;;4264648;27;20035;-51
2023/08/01 08:26:30;;;;;;;9.25;3.13;;;19.80;99.90;;;;;;4264875;27;20402;-52
2023/08/01 08:28:34;;;;;;;14.10;3.43;;;19.90;99.90;;;;;;4264217;27;20049;-52
2023/08/01 08:30:36;;;;;;;12.15;3.53;;;20.00;99.90;;;;;;4264883;27;20043;-52
2023/08/01 08:32:39;;;;;;;5.75;2.88;;;19.90;99.90;;;;;;4264561;27;20047;-52
2023/08/01 08:34:41;;;;;;;12.20;3.10;;;19.80;99.90;;;;;;4264838;27;20050;-51
2023/08/01 08:36:43;;;;;;;12.40;3.63;;;19.80;99.90;;;;;;4264778;27;20104;-51
2023/08/01 08:38:45;;;;;;;14.43;3.78;;;19.80;99.90;;;;;;4264074;27;20121;-52
2023/08/01 08:40:56;;;;;;;10.98;3.47;;;19.90;99.90;;;;;;4265097;27;20073;-52
2023/08/01 08:43:01;;;;;;;11.98;3.70;;;19.90;99.90;;;;;;4264585;27;20083;-51
2023/08/01 08:45:05;;;;;;;9.98;3.65;;;20.00;99.90;;;;;;4264059;27;20475;-52
2023/08/01 08:47:10;;;;;;;10.68;3.38;;;19.90;99.90;;;;;;4264314;27;20131;-51
2023/08/01 08:49:15;;;;;;;12.40;4.15;;;20.00;99.90;;;;;;4263866;27;20078;-51
2023/08/01 08:51:18;;;;;;;11.38;3.47;;;20.00;99.90;;;;;;4264825;27;20043;-52
2023/08/01 08:53:21;;;;;;;14.98;4.03;;;19.80;99.90;;;;;;4264557;27;20047;-53
2023/08/01 08:55:26;;;;;;;12.77;4.15;;;19.80;99.90;;;;;;4264805;27;20057;-52
2023/08/01 08:57:29;;;;;;;8.98;3.30;;;19.90;99.90;;;;;;4264225;27;20043;-52
2023/08/01 08:59:33;;;;;;;11.93;3.50;;;20.00;99.90;;;;;;4264414;27;20440;-52
2023/08/01 09:01:35;;;;;;;6.90;2.92;;;20.20;99.90;;;;;;4264159;27;20039;-52
2023/08/01 09:03:37;;;;;;;13.07;3.35;;;20.20;99.90;;;;;;4264513;27;20058;-51
2023/08/01 09:05:45;;;;;;;14.18;3.38;;;20.30;99.90;;;;;;4264369;27;20121;-52
2023/08/01 09:07:50;;;;;;;11.75;3.90;;;20.20;99.90;;;;;;4266032;27;20488;-52
2023/08/01 09:09:52;;;;;;;12.48;3.50;;;20.30;99.90;;;;;;4267323;27;20062;-52
2023/08/01 09:11:57;;;;;;;9.20;3.33;;;20.50;99.90;;;;;;4267476;27;20047;-51
2023/08/01 09:13:59;;;;;;;12.75;3.97;;;20.60;99.90;;;;;;4267717;27;20388;-52
2023/08/01 09:16:06;;;;;;;16.10;3.78;;;20.60;99.90;;;;;;4267156;27;20114;-52
2023/08/01 09:18:09;;;;;;;11.10;3.60;;;20.70;99.90;;;;;;4266766;27;20046;-52
2023/08/01 09:20:11;;;;;;;10.73;3.35;;;20.70;99.90;;;;;;4267393;27;20218;-51
2023/08/01 09:22:14;;;;;;;8.65;2.80;;;20.70;99.90;;;;;;4267574;27;20135;-52
2023/08/01 09:24:18;;;;;;;12.52;3.65;;;20.80;99.90;;;;;;4267382;27;20100;-51
2023/08/01 09:26:20;;;;;;;12.77;3.13;;;20.90;99.50;;;;;;4267442;27;20047;-57
2023/08/01 09:28:23;;;;;;;13.65;4.03;;;20.90;99.20;;;;;;4266632;27;20503;-53
2023/08/01 09:30:26;;;;;;;10.55;3.35;;;20.80;99.50;;;;;;4266945;27;20074;-54
2023/08/01 09:32:29;;;;;;;10.75;3.72;;;20.50;99.00;;;;;;4267384;27;20043;-55
2023/08/01 09:34:31;;;;;;;8.80;3.13;;;20.40;99.10;;;;;;4267602;27;20106;-54
2023/08/01 09:36:34;;;;;;;13.18;4.07;;;20.50;99.50;;;;;;4266990;27;20503;-54
2023/08/01 09:38:37;;;;;;;11.85;3.53;;;20.80;99.90;;;;;;4266308;27;20046;-54
2023/08/01 09:40:40;;;;;;;13.40;3.72;;;20.90;99.70;;;;;;4267350;27;20411;-54
2023/08/01 09:42:44;;;;;;;15.95;4.10;;;21.00;99.20;;;;;;4267129;27;20403;-54
2023/08/01 09:44:49;;;;;;;9.77;3.47;;;21.20;98.90;;;;;;4266696;27;20047;-54
2023/08/01 09:46:57;;;;;;;;;;;21.40;97.60;;;;;;4267365;27;20869;-54
2023/08/01 09:49:09;;;;;;;8.60;3.40;;;21.40;97.70;;;;;;4266060;27;19919;-54
2023/08/01 09:51:13;;;;;;;13.18;3.88;;;21.30;98.00;;;;;;4267164;27;20049;-53
2023/08/01 09:53:15;;;;;;;8.18;3.42;;;21.30;98.20;;;;;;4267357;27;20046;-54
2023/08/01 09:55:17;;;;;;;8.45;2.80;;;21.30;97.90;;;;;;4267032;27;20047;-54
2023/08/01 09:57:21;;;;;;;12.02;3.50;;;21.30;97.40;;;;;;4266807;27;20385;-54
2023/08/01 09:59:25;;;;;;;10.85;3.28;;;21.30;97.80;;;;;;4247218;27;20053;-54
2023/08/01 10:01:32;;;;;;;7.97;2.75;;;21.20;97.20;;;;;;4266877;27;20046;-54
2023/08/01 10:03:34;;;;;;;6.53;2.88;;;21.10;97.40;;;;;;4266673;27;20472;-55
2023/08/01 10:05:39;;;;;;;7.55;2.70;;;21.10;97.90;;;;;;4266692;27;20376;-54
2023/08/01 10:07:43;;;;;;;14.55;3.92;;;21.10;98.10;;;;;;4247592;27;20078;-55
2023/08/01 10:09:47;;;;;;;6.10;3.10;;;21.10;97.20;;;;;;4248044;27;20078;-55
2023/08/01 10:11:51;;;;;;;8.80;2.78;;;21.10;97.60;;;;;;4266544;27;20122;-54
2023/08/01 10:13:53;;;;;;;10.23;4.20;;;21.00;97.00;;;;;;4266210;27;20420;-53
2023/08/01 10:15:55;;;;;;;10.10;2.92;;;21.00;96.60;;;;;;4266702;27;20043;-55
2023/08/01 10:17:58;;;;;;;8.18;2.60;;;20.90;97.20;;;;;;4265446;27;20049;-54
2023/08/01 10:20:01;;;;;;;10.20;3.28;;;20.80;97.20;;;;;;4266746;27;20095;-52
2023/08/01 10:22:06;;;;;;;10.32;3.13;;;20.80;97.80;;;;;;4266566;27;20553;-56
2023/08/01 10:24:09;;;;;;;;;;;20.60;97.90;;;;;;4266731;27;20050;-51
2023/08/01 10:26:12;;;;;;;12.70;3.35;;;20.40;97.80;;;;;;4266353;27;19962;-52
2023/08/01 10:28:14;;;;;;;9.45;3.22;;;20.40;99.00;;;;;;4246823;27;20047;-52
2023/08/01 10:30:26;;;;;;;9.05;3.13;;;20.50;98.40;;;;;;4266466;27;20163;-53
2023/08/01 10:32:32;;;;;;;7.70;2.95;;;20.60;98.70;;;;;;4266330;27;20479;-53
2023/08/01 10:34:35;;;;;;;9.60;3.08;;;20.60;99.20;;;;;;4248147;27;20055;-53
2023/08/01 10:36:38;;;;;;;10.68;3.85;;;20.70;99.10;;;;;;4266349;27;20103;-54